Carter Lake, IA (51510)

04:05 CST le 31 janvier 2015 (GMT -0600)
CarterLake.org | Change Station
CLOSE
Current Station
Stations météorologiques personnelles
Location: Carter Lake, IA
Altitude: 980 ft
Stations météo à proximité

Alt. 980 ft 41.29 °N, 95.92 °W | Updated 1 second ago

Mostly Cloudy
Nuageux
34.1 ° F
Paraît 34 ° F
N
2.6
Vent Variable Vent de SE
Gusts 3.5 mph

Aujourd'hui
Haut(e) -- | Bas -- ° F
--% Risque de précip.
Hier
Haut(e) -- | Bas -- ° F
Precip. -- pouce
7:36 AM 5:38 PM
Lune gibbeuse croissante, 88% visible
Pression 30.22 pouce
Visibilité 10.0 Miles terrestres
Nuages Nuageux 4700 ft
Nuageux 6500 ft
Refroidissement éolien 34 ° F
Point de rosée 26 ° F
Humidité 73%
Précipitations 0.00 pouce
Profondeur de la couche neigeuse Non disponible.
UV 0 sur 12
Pollen .10 sur 12
Qualité de l'air Non disponible.
Flu Activity Non disponible.
METAR KOMA 310952Z 14008KT 10SM BKN047 BKN065 01/M03 A3019 RMK AO2 SLP233 T00061028

More Conditions Fewer Conditions

Pression 30.22 pouce
Visibilité 10.0 Miles terrestres
Nuages Nuageux 4700 ft
Nuageux 6500 ft
Refroidissement éolien 34 ° F
Point de rosée 26 ° F
Humidité 73%
Précipitations 0.00 pouce
Profondeur de la couche neigeuse Non disponible.
UV 0 sur 12
Pollen .10 sur 12
Qualité de l'air Non disponible.
Flu Activity Non disponible.
METAR KOMA 310952Z 14008KT 10SM BKN047 BKN065 01/M03 A3019 RMK AO2 SLP233 T00061028

More Conditions Fewer Conditions

10-Day Weather Forecast

Almanac

Astronomie

Jan. 31, 2015 Lever Coucher
Temps réel
Crépuscule civil
Crépuscule nautique
Crépuscule astronomique
Lune
Durée de lumière visible
Longueur du jour
Tomorrow will be .
, % of the Moon is Illuminated

Extrêmes aujourd'hui

State Highs State Lows

Community

WunderPhotos

Upload Photos

1,792,021 Photos téléchargées !

WunderBlogs® & News

Nearby

Qualité de l'air

  Qualité de l'air Indice de la qualité de l'air Polluant
Not available.

Épaisseur de neige

Station Depth Altitude

Activité sismique

Ville Distance Mag. Time & Date
Minimum magnitude displayed is 2.5.

Températures des eaux côtières

Lieu Température

Stations météo à proximité